createdAt,value
2018-05-12T00:00:24.017Z,0
2018-05-12T00:01:25.015Z,0
2018-05-12T00:02:26.172Z,0
2018-05-12T00:03:27.009Z,0
2018-05-12T00:04:28.020Z,0
2018-05-12T00:05:28.823Z,0
2018-05-12T00:06:29.833Z,0
2018-05-12T00:07:30.604Z,0
2018-05-12T00:08:31.332Z,0
2018-05-12T00:09:32.079Z,0
2018-05-12T00:10:32.815Z,0
2018-05-12T00:11:33.569Z,0
2018-05-12T00:12:35.094Z,0
2018-05-12T00:13:35.821Z,0
2018-05-12T00:14:36.589Z,0
2018-05-12T00:15:37.299Z,0
2018-05-12T00:16:38.035Z,0
2018-05-12T00:17:39.214Z,0
2018-05-12T00:18:39.927Z,0
2018-05-12T00:19:40.931Z,0
2018-05-12T00:20:41.655Z,0
2018-05-12T00:21:42.363Z,0
2018-05-12T00:22:43.201Z,0
2018-05-12T00:23:43.921Z,0
2018-05-12T00:24:45.716Z,0
2018-05-12T00:25:46.877Z,0
2018-05-12T00:26:47.588Z,0
2018-05-12T00:27:48.615Z,0
2018-05-12T00:28:49.807Z,0
2018-05-12T00:29:51.104Z,0
2018-05-12T00:30:51.939Z,0
2018-05-12T00:31:53.104Z,0
2018-05-12T00:32:54.180Z,0
2018-05-12T00:33:55.020Z,0
2018-05-12T00:34:56.217Z,0
2018-05-12T00:35:57.165Z,0
2018-05-12T00:36:58.497Z,0
2018-05-12T00:37:59.413Z,0
2018-05-12T00:39:00.332Z,0
2018-05-12T00:40:02.371Z,0
2018-05-12T00:41:03.328Z,0
2018-05-12T00:42:04.392Z,0
2018-05-12T00:43:05.192Z,0
2018-05-12T00:44:05.827Z,0
2018-05-12T00:45:06.574Z,0
2018-05-12T00:46:07.294Z,0
2018-05-12T00:47:08.033Z,0
2018-05-12T00:48:08.765Z,0
2018-05-12T00:49:09.471Z,0
2018-05-12T00:50:10.201Z,0
2018-05-12T00:51:10.971Z,0
2018-05-12T00:52:11.704Z,0
2018-05-12T00:53:13.049Z,0
2018-05-12T00:54:14.064Z,0
2018-05-12T00:55:14.779Z,0
2018-05-12T00:56:15.891Z,0
2018-05-12T00:57:16.602Z,0
2018-05-12T00:58:17.589Z,0
2018-05-12T00:59:18.522Z,0
2018-05-12T01:00:19.252Z,0
2018-05-12T01:01:20.103Z,0
2018-05-12T01:02:20.804Z,0
2018-05-12T01:03:21.552Z,0
2018-05-12T01:04:22.283Z,0
2018-05-12T01:05:23.535Z,0
2018-05-12T01:06:24.401Z,0
2018-05-12T01:07:25.151Z,0
2018-05-12T01:08:25.866Z,0
2018-05-12T01:09:26.865Z,0
2018-05-12T01:10:27.589Z,0
2018-05-12T01:11:28.305Z,0
2018-05-12T01:12:29.031Z,0
2018-05-12T01:13:29.784Z,0
2018-05-12T01:14:30.478Z,0
2018-05-12T01:15:31.448Z,0
2018-05-12T01:16:32.202Z,0
2018-05-12T01:17:32.927Z,0
2018-05-12T01:18:34.036Z,0
2018-05-12T01:19:35.013Z,0
2018-05-12T01:20:35.736Z,0
2018-05-12T01:21:36.447Z,0
2018-05-12T01:22:37.190Z,0
2018-05-12T01:23:38.009Z,0
2018-05-12T01:24:38.745Z,0
2018-05-12T01:25:39.466Z,0
2018-05-12T01:26:40.189Z,0
2018-05-12T01:27:40.903Z,0
2018-05-12T01:28:42.366Z,0
2018-05-12T01:29:43.100Z,0
2018-05-12T01:30:43.825Z,0
2018-05-12T01:31:44.582Z,0
2018-05-12T01:32:45.296Z,0
2018-05-12T01:33:46.030Z,0
2018-05-12T01:34:46.768Z,0
2018-05-12T01:35:47.487Z,0
2018-05-12T01:36:48.233Z,0
2018-05-12T01:37:48.949Z,0
2018-05-12T01:38:49.704Z,0
2018-05-12T01:39:50.419Z,0
2018-05-12T01:40:51.155Z,0
2018-05-12T01:41:51.881Z,0
2018-05-12T01:42:52.846Z,0
2018-05-12T01:43:53.584Z,0
2018-05-12T01:44:54.303Z,0
2018-05-12T01:45:55.045Z,0
2018-05-12T01:46:55.757Z,0
2018-05-12T01:47:56.473Z,0
2018-05-12T01:48:57.185Z,0
2018-05-12T01:49:58.063Z,0
2018-05-12T01:50:58.780Z,0
2018-05-12T01:51:59.510Z,0
2018-05-12T01:53:00.235Z,0
2018-05-12T01:54:00.960Z,0
2018-05-12T01:55:01.694Z,0
2018-05-12T01:56:02.408Z,0
2018-05-12T01:57:03.127Z,0
2018-05-12T01:58:03.851Z,0
2018-05-12T01:59:04.933Z,0
2018-05-12T02:00:05.659Z,0
2018-05-12T02:01:06.384Z,0
2018-05-12T02:02:07.112Z,0
2018-05-12T02:03:07.835Z,0
2018-05-12T02:04:08.615Z,0
2018-05-12T02:05:09.590Z,0
2018-05-12T02:06:10.309Z,0
2018-05-12T02:07:11.026Z,0
2018-05-12T02:08:11.750Z,0
2018-05-12T02:09:12.493Z,0
2018-05-12T02:10:13.234Z,0
2018-05-12T02:11:13.931Z,0
2018-05-12T02:12:14.774Z,0
2018-05-12T02:13:15.496Z,0
2018-05-12T02:14:16.215Z,0
2018-05-12T02:15:16.943Z,0
2018-05-12T02:16:17.933Z,0
2018-05-12T02:17:18.808Z,0
2018-05-12T02:18:19.540Z,0
2018-05-12T02:19:20.266Z,0
2018-05-12T02:20:20.983Z,0
2018-05-12T02:21:21.698Z,0
2018-05-12T02:22:22.528Z,0
2018-05-12T02:23:23.254Z,0
2018-05-12T02:24:23.979Z,0
2018-05-12T02:25:24.706Z,0
2018-05-12T02:26:25.424Z,0
2018-05-12T02:27:26.164Z,0
2018-05-12T02:28:26.885Z,0
2018-05-12T02:29:27.767Z,0
2018-05-12T02:30:28.574Z,0
2018-05-12T02:31:29.223Z,0
2018-05-12T02:32:29.954Z,0
2018-05-12T02:33:30.679Z,0
2018-05-12T02:34:31.508Z,0
2018-05-12T02:35:32.229Z,0
2018-05-12T02:36:32.952Z,0
2018-05-12T02:37:33.669Z,0
2018-05-12T02:38:34.392Z,0
2018-05-12T02:39:35.511Z,0
2018-05-12T02:40:36.229Z,0
2018-05-12T02:41:36.952Z,0
2018-05-12T02:42:37.679Z,0
2018-05-12T02:43:38.397Z,0
2018-05-12T02:44:39.166Z,0
2018-05-12T02:45:39.893Z,0
2018-05-12T02:46:40.630Z,0
2018-05-12T02:47:41.345Z,0
2018-05-12T02:48:42.076Z,0
2018-05-12T02:49:42.794Z,0
2018-05-12T02:50:43.514Z,0
2018-05-12T02:51:44.251Z,0
2018-05-12T02:52:44.978Z,0
2018-05-12T02:53:45.692Z,0
2018-05-12T02:54:46.414Z,0
2018-05-12T02:55:47.144Z,0
2018-05-12T02:56:47.853Z,0
2018-05-12T02:57:48.918Z,0
2018-05-12T02:58:49.641Z,0
2018-05-12T02:59:50.357Z,0
2018-05-12T03:00:51.089Z,0
2018-05-12T03:01:51.827Z,0
2018-05-12T03:02:52.550Z,0
2018-05-12T03:03:53.273Z,0
2018-05-12T03:04:54.054Z,0
2018-05-12T03:05:55.026Z,0
2018-05-12T03:06:55.757Z,0
2018-05-12T03:07:56.494Z,0
2018-05-12T03:08:57.319Z,0
2018-05-12T03:09:57.946Z,0
2018-05-12T03:10:58.667Z,0
2018-05-12T03:11:59.397Z,0
2018-05-12T03:13:00.120Z,0
2018-05-12T03:14:01.104Z,0
2018-05-12T03:15:01.819Z,0
2018-05-12T03:16:02.541Z,0
2018-05-12T03:17:03.262Z,0
2018-05-12T03:18:03.985Z,0
2018-05-12T03:19:04.706Z,0
2018-05-12T03:20:05.428Z,0
2018-05-12T03:21:06.547Z,0
2018-05-12T03:22:07.521Z,0
2018-05-12T03:23:08.251Z,0
2018-05-12T03:24:08.999Z,0
2018-05-12T03:25:09.717Z,0
2018-05-12T03:26:10.790Z,5
2018-05-12T03:27:11.564Z,5
2018-05-12T03:28:12.255Z,5
2018-05-12T03:29:12.983Z,5
2018-05-12T03:30:13.709Z,5
2018-05-12T03:31:14.582Z,5
2018-05-12T03:32:15.311Z,5
2018-05-12T03:33:16.045Z,11
2018-05-12T03:34:16.764Z,11
2018-05-12T03:35:17.501Z,11
2018-05-12T03:36:18.235Z,11
2018-05-12T03:37:18.967Z,11
2018-05-12T03:38:19.699Z,16
2018-05-12T03:39:20.429Z,16
2018-05-12T03:40:21.177Z,16
2018-05-12T03:41:21.897Z,16
2018-05-12T03:42:22.635Z,22
2018-05-12T03:43:23.411Z,22
2018-05-12T03:44:24.398Z,22
2018-05-12T03:45:25.134Z,28
2018-05-12T03:46:25.848Z,28
2018-05-12T03:47:26.588Z,28
2018-05-12T03:48:27.353Z,28
2018-05-12T03:49:28.333Z,33
2018-05-12T03:50:29.309Z,33
2018-05-12T03:51:30.296Z,33
2018-05-12T03:52:31.031Z,39
2018-05-12T03:53:31.747Z,39
2018-05-12T03:54:32.490Z,39
2018-05-12T03:55:33.216Z,39
2018-05-12T03:56:34.047Z,45
2018-05-12T03:57:34.776Z,45
2018-05-12T03:58:35.503Z,50
2018-05-12T03:59:36.230Z,50
2018-05-12T04:00:36.950Z,50
2018-05-12T04:01:37.677Z,56
2018-05-12T04:02:38.396Z,56
2018-05-12T04:03:39.136Z,61
2018-05-12T04:04:39.862Z,61
2018-05-12T04:05:40.987Z,61
2018-05-12T04:06:41.716Z,67
2018-05-12T04:07:42.438Z,67
2018-05-12T04:08:43.173Z,67
2018-05-12T04:09:43.898Z,67
2018-05-12T04:10:44.634Z,73
2018-05-12T04:11:45.371Z,73
2018-05-12T04:12:46.355Z,73
2018-05-12T04:13:47.729Z,78
2018-05-12T04:14:48.466Z,84
2018-05-12T04:15:49.199Z,84
2018-05-12T04:16:49.927Z,90
2018-05-12T04:17:50.678Z,95
2018-05-12T04:18:51.799Z,95
2018-05-12T04:19:52.532Z,101
2018-05-12T04:20:53.285Z,101
2018-05-12T04:21:53.976Z,101
2018-05-12T04:22:54.709Z,106
2018-05-12T04:23:55.776Z,106
2018-05-12T04:24:56.513Z,106
2018-05-12T04:25:57.229Z,106
2018-05-12T04:26:57.951Z,106
2018-05-12T04:27:58.681Z,106
2018-05-12T04:28:59.412Z,106
2018-05-12T04:30:00.399Z,106
2018-05-12T04:31:01.128Z,112
2018-05-12T04:32:02.310Z,112
2018-05-12T04:33:03.041Z,118
2018-05-12T04:34:04.016Z,123
2018-05-12T04:35:04.752Z,129
2018-05-12T04:36:05.479Z,129
2018-05-12T04:37:06.212Z,129
2018-05-12T04:38:06.956Z,129
2018-05-12T04:39:07.697Z,135
2018-05-12T04:40:08.678Z,140
2018-05-12T04:41:09.403Z,140
2018-05-12T04:42:10.130Z,146
2018-05-12T04:43:10.875Z,146
2018-05-12T04:44:11.695Z,157
2018-05-12T04:45:12.426Z,163
2018-05-12T04:46:13.411Z,174
2018-05-12T04:47:14.128Z,185
2018-05-12T04:48:14.850Z,196
2018-05-12T04:49:15.827Z,202
2018-05-12T04:50:16.570Z,202
2018-05-12T04:51:17.295Z,202
2018-05-12T04:52:18.282Z,202
2018-05-12T04:53:19.260Z,196
2018-05-12T04:54:20.150Z,196
2018-05-12T04:55:20.816Z,202
2018-05-12T04:56:21.558Z,208
2018-05-12T04:57:22.273Z,208
2018-05-12T04:58:23.004Z,219
2018-05-12T04:59:23.739Z,230
2018-05-12T05:00:24.517Z,241
2018-05-12T05:01:25.251Z,258
2018-05-12T05:02:25.986Z,264
2018-05-12T05:03:26.706Z,270
2018-05-12T05:04:27.438Z,270
2018-05-12T05:05:28.324Z,270
2018-05-12T05:06:29.055Z,264
2018-05-12T05:07:29.798Z,270
2018-05-12T05:08:30.531Z,270
2018-05-12T05:09:31.266Z,270
2018-05-12T05:10:32.039Z,270
2018-05-12T05:11:32.767Z,286
2018-05-12T05:12:33.487Z,275
2018-05-12T05:13:34.212Z,281
2018-05-12T05:14:34.944Z,275
2018-05-12T05:15:35.774Z,275
2018-05-12T05:16:36.492Z,281
2018-05-12T05:17:37.223Z,275
2018-05-12T05:18:37.952Z,275
2018-05-12T05:19:38.937Z,275
2018-05-12T05:20:39.741Z,281
2018-05-12T05:21:40.469Z,286
2018-05-12T05:22:41.208Z,292
2018-05-12T05:23:41.950Z,309
2018-05-12T05:24:42.702Z,315
2018-05-12T05:25:43.417Z,326
2018-05-12T05:26:44.154Z,343
2018-05-12T05:27:44.882Z,320
2018-05-12T05:28:45.622Z,337
2018-05-12T05:29:46.697Z,331
2018-05-12T05:30:47.431Z,343
2018-05-12T05:31:48.157Z,348
2018-05-12T05:32:48.883Z,343
2018-05-12T05:33:49.615Z,343
2018-05-12T05:34:50.338Z,343
2018-05-12T05:35:51.076Z,343
2018-05-12T05:36:51.810Z,427
2018-05-12T05:37:52.531Z,382
2018-05-12T05:38:53.267Z,371
2018-05-12T05:39:53.997Z,433
2018-05-12T05:40:54.729Z,416
2018-05-12T05:41:55.459Z,450
2018-05-12T05:42:56.240Z,405
2018-05-12T05:43:56.975Z,450
2018-05-12T05:44:57.956Z,416
2018-05-12T05:45:58.701Z,416
2018-05-12T05:46:59.421Z,405
2018-05-12T05:48:00.258Z,405
2018-05-12T05:49:00.983Z,399
2018-05-12T05:50:01.984Z,393
2018-05-12T05:51:02.706Z,393
2018-05-12T05:52:03.445Z,388
2018-05-12T05:53:04.428Z,393
2018-05-12T05:54:05.624Z,393
2018-05-12T05:55:06.356Z,399
2018-05-12T05:56:07.095Z,405
2018-05-12T05:57:07.827Z,410
2018-05-12T05:58:08.546Z,416
2018-05-12T05:59:09.370Z,421
2018-05-12T06:00:10.100Z,421
2018-05-12T06:01:10.833Z,421
2018-05-12T06:02:11.585Z,421
2018-05-12T06:03:12.313Z,421
2018-05-12T06:04:13.041Z,421
2018-05-12T06:05:13.770Z,427
2018-05-12T06:06:14.500Z,427
2018-05-12T06:07:15.245Z,433
2018-05-12T06:08:15.962Z,433
2018-05-12T06:09:16.692Z,438
2018-05-12T06:10:17.416Z,438
2018-05-12T06:11:18.147Z,438
2018-05-12T06:12:18.887Z,444
2018-05-12T06:13:19.859Z,444
2018-05-12T06:14:20.598Z,444
2018-05-12T06:15:21.323Z,450
2018-05-12T06:16:22.053Z,450
2018-05-12T06:17:22.787Z,455
2018-05-12T06:18:23.512Z,450
2018-05-12T06:19:24.243Z,455
2018-05-12T06:20:24.975Z,450
2018-05-12T06:21:25.703Z,455
2018-05-12T06:22:26.441Z,461
2018-05-12T06:23:27.175Z,472
2018-05-12T06:24:27.908Z,461
2018-05-12T06:25:28.657Z,556
2018-05-12T06:26:29.373Z,500
2018-05-12T06:27:30.105Z,534
2018-05-12T06:28:30.896Z,461
2018-05-12T06:29:31.644Z,466
2018-05-12T06:30:32.628Z,472
2018-05-12T06:31:33.356Z,483
2018-05-12T06:32:34.093Z,478
2018-05-12T06:33:35.236Z,483
2018-05-12T06:34:35.919Z,489
2018-05-12T06:35:36.653Z,489
2018-05-12T06:36:37.392Z,500
2018-05-12T06:37:38.375Z,506
2018-05-12T06:38:39.204Z,511
2018-05-12T06:39:39.936Z,545
2018-05-12T06:40:40.918Z,523
2018-05-12T06:41:41.896Z,528
2018-05-12T06:42:42.639Z,528
2018-05-12T06:43:43.358Z,534
2018-05-12T06:44:44.102Z,540
2018-05-12T06:45:44.831Z,540
2018-05-12T06:46:45.596Z,534
2018-05-12T06:47:46.332Z,534
2018-05-12T06:48:47.167Z,540
2018-05-12T06:49:47.895Z,540
2018-05-12T06:50:48.657Z,534
2018-05-12T06:51:49.384Z,534
2018-05-12T06:52:50.461Z,534
2018-05-12T06:53:51.205Z,551
2018-05-12T06:54:51.955Z,579
2018-05-12T06:55:52.689Z,568
2018-05-12T06:56:53.675Z,596
2018-05-12T06:57:54.397Z,624
2018-05-12T06:58:55.140Z,613
2018-05-12T06:59:55.863Z,770
2018-05-12T07:00:56.708Z,703
2018-05-12T07:01:57.443Z,855
2018-05-12T07:02:58.196Z,669
2018-05-12T07:03:58.912Z,585
2018-05-12T07:04:59.891Z,658
2018-05-12T07:06:00.624Z,590
2018-05-12T07:07:01.350Z,911
2018-05-12T07:08:02.094Z,596
2018-05-12T07:09:02.816Z,607
2018-05-12T07:10:03.572Z,680
2018-05-12T07:11:04.296Z,1130
2018-05-12T07:12:05.035Z,973
2018-05-12T07:13:05.916Z,1125
2018-05-12T07:14:06.898Z,1361
2018-05-12T07:15:07.880Z,1215
2018-05-12T07:16:08.611Z,1153
2018-05-12T07:17:09.345Z,1001
2018-05-12T07:18:10.084Z,984
2018-05-12T07:19:10.821Z,1603
2018-05-12T07:20:11.540Z,1653
2018-05-12T07:21:12.285Z,1546
2018-05-12T07:22:13.020Z,776
2018-05-12T07:23:13.762Z,1783
2018-05-12T07:24:14.497Z,697
2018-05-12T07:25:15.232Z,1569
2018-05-12T07:26:15.960Z,1665
2018-05-12T07:27:16.736Z,1648
2018-05-12T07:28:17.720Z,1580
2018-05-12T07:29:18.449Z,1192
2018-05-12T07:30:19.182Z,1833
2018-05-12T07:31:19.914Z,1276
2018-05-12T07:32:20.700Z,1417
2018-05-12T07:33:21.435Z,1698
2018-05-12T07:34:22.158Z,1248
2018-05-12T07:35:22.901Z,2019
2018-05-12T07:36:23.639Z,2075
2018-05-12T07:37:24.809Z,2092
2018-05-12T07:38:25.550Z,2109
2018-05-12T07:39:26.275Z,2188
2018-05-12T07:40:27.013Z,2193
2018-05-12T07:41:27.744Z,2205
2018-05-12T07:42:28.738Z,1614
2018-05-12T07:43:29.525Z,2165
2018-05-12T07:44:30.252Z,2176
2018-05-12T07:45:31.009Z,2171
2018-05-12T07:46:31.737Z,2165
2018-05-12T07:47:32.480Z,2160
2018-05-12T07:48:33.207Z,2182
2018-05-12T07:49:34.043Z,2176
2018-05-12T07:50:34.782Z,2182
2018-05-12T07:51:35.526Z,2131
2018-05-12T07:52:36.255Z,2143
2018-05-12T07:53:36.985Z,2115
2018-05-12T07:54:37.727Z,2131
2018-05-12T07:55:38.458Z,2188
2018-05-12T07:56:39.198Z,2210
2018-05-12T07:57:39.941Z,2216
2018-05-12T07:58:40.672Z,2250
2018-05-12T07:59:41.398Z,2261
2018-05-12T08:00:42.544Z,2283
2018-05-12T08:01:43.285Z,1102
2018-05-12T08:02:44.033Z,2379
2018-05-12T08:03:44.766Z,2238
2018-05-12T08:04:45.496Z,916
2018-05-12T08:05:46.226Z,821
2018-05-12T08:06:46.997Z,804
2018-05-12T08:07:47.737Z,860
2018-05-12T08:08:48.459Z,787
2018-05-12T08:09:49.200Z,748
2018-05-12T08:10:49.935Z,720
2018-05-12T08:11:50.683Z,703
2018-05-12T08:12:51.439Z,680
2018-05-12T08:13:52.156Z,663
2018-05-12T08:14:52.897Z,697
2018-05-12T08:15:53.645Z,714
2018-05-12T08:16:54.381Z,720
2018-05-12T08:17:55.123Z,714
2018-05-12T08:18:55.868Z,708
2018-05-12T08:19:56.611Z,697
2018-05-12T08:20:57.340Z,697
2018-05-12T08:21:58.521Z,787
2018-05-12T08:22:59.280Z,973
2018-05-12T08:24:00.005Z,1085
2018-05-12T08:25:00.752Z,1271
2018-05-12T08:26:01.554Z,2677
2018-05-12T08:27:02.226Z,1816
2018-05-12T08:28:02.968Z,1276
2018-05-12T08:29:03.758Z,1220
2018-05-12T08:30:04.500Z,1254
2018-05-12T08:31:05.237Z,1400
2018-05-12T08:32:05.965Z,1665
2018-05-12T08:33:06.971Z,2289
2018-05-12T08:34:07.694Z,1417
2018-05-12T08:35:08.425Z,1265
2018-05-12T08:36:09.413Z,1215
2018-05-12T08:37:10.165Z,1040
2018-05-12T08:38:10.897Z,905
2018-05-12T08:39:11.788Z,849
2018-05-12T08:40:12.524Z,866
2018-05-12T08:41:13.257Z,928
2018-05-12T08:42:14.253Z,995
2018-05-12T08:43:14.991Z,1102
2018-05-12T08:44:15.784Z,1260
2018-05-12T08:45:16.523Z,1496
2018-05-12T08:46:17.276Z,1434
2018-05-12T08:47:18.004Z,1440
2018-05-12T08:48:18.748Z,1490
2018-05-12T08:49:19.590Z,1783
2018-05-12T08:50:20.423Z,1670
2018-05-12T08:51:21.424Z,1918
2018-05-12T08:52:22.156Z,3318
2018-05-12T08:53:22.904Z,3127
2018-05-12T08:54:23.641Z,3217
2018-05-12T08:55:24.695Z,3155
2018-05-12T08:56:25.357Z,3076
2018-05-12T08:57:26.467Z,3003
2018-05-12T08:58:27.195Z,2947
2018-05-12T08:59:27.946Z,2947
2018-05-12T09:00:28.708Z,2160
2018-05-12T09:01:29.500Z,3076
2018-05-12T09:02:30.807Z,2885
2018-05-12T09:03:31.531Z,2216
2018-05-12T09:04:32.256Z,2317
2018-05-12T09:05:33.241Z,3003
2018-05-12T09:06:34.331Z,3048
2018-05-12T09:07:35.193Z,2981
2018-05-12T09:08:35.943Z,2941
2018-05-12T09:09:37.242Z,2846
2018-05-12T09:10:37.978Z,2491
2018-05-12T09:11:38.726Z,1923
2018-05-12T09:12:39.856Z,2902
2018-05-12T09:13:40.864Z,2986
2018-05-12T09:14:41.591Z,2986
2018-05-12T09:15:42.328Z,3043
2018-05-12T09:16:43.333Z,2835
2018-05-12T09:17:44.677Z,2458
2018-05-12T09:18:45.423Z,2756
2018-05-12T09:19:46.167Z,2711
2018-05-12T09:20:46.908Z,2176
2018-05-12T09:21:47.657Z,2458
2018-05-12T09:22:48.408Z,2041
2018-05-12T09:23:49.149Z,3403
2018-05-12T09:24:50.142Z,3442
2018-05-12T09:25:50.906Z,3380
2018-05-12T09:26:51.663Z,3189
2018-05-12T09:27:52.395Z,2705
2018-05-12T09:28:53.659Z,2497
2018-05-12T09:29:54.468Z,3071
2018-05-12T09:30:55.197Z,2649
2018-05-12T09:31:55.953Z,3223
2018-05-12T09:32:56.706Z,3290
2018-05-12T09:33:57.437Z,3290
2018-05-12T09:34:58.184Z,3183
2018-05-12T09:35:58.924Z,3076
2018-05-12T09:36:59.658Z,3076
2018-05-12T09:38:00.413Z,3172
2018-05-12T09:39:01.403Z,1614
2018-05-12T09:40:02.142Z,2593
2018-05-12T09:41:02.879Z,1518
2018-05-12T09:42:03.617Z,1361
2018-05-12T09:43:04.351Z,1591
2018-05-12T09:44:05.090Z,1833
2018-05-12T09:45:05.829Z,1451
2018-05-12T09:46:06.566Z,1462
2018-05-12T09:47:07.293Z,1726
2018-05-12T09:48:08.036Z,1603
2018-05-12T09:49:08.783Z,1850
2018-05-12T09:50:09.521Z,3206
2018-05-12T09:51:10.308Z,3403
2018-05-12T09:52:11.062Z,3358
2018-05-12T09:53:12.056Z,2857
2018-05-12T09:54:12.787Z,1845
2018-05-12T09:55:13.512Z,1614
2018-05-12T09:56:14.842Z,2311
2018-05-12T09:57:15.841Z,3301
2018-05-12T09:58:16.835Z,3594
2018-05-12T09:59:17.559Z,3560
2018-05-12T10:00:18.302Z,3391
2018-05-12T10:01:19.197Z,3161
2018-05-12T10:02:19.943Z,3161
2018-05-12T10:03:20.722Z,3352
2018-05-12T10:04:21.429Z,3420
2018-05-12T10:05:22.184Z,3223
2018-05-12T10:06:23.381Z,3330
2018-05-12T10:07:24.351Z,3262
2018-05-12T10:08:25.456Z,3245
2018-05-12T10:09:26.176Z,3363
2018-05-12T10:10:26.971Z,3538
2018-05-12T10:11:27.713Z,3611
2018-05-12T10:12:28.446Z,3678
2018-05-12T10:13:29.685Z,3729
2018-05-12T10:14:31.276Z,3690
2018-05-12T10:15:32.131Z,3628
2018-05-12T10:16:32.848Z,3313
2018-05-12T10:17:33.902Z,3566
2018-05-12T10:18:35.160Z,2306
2018-05-12T10:19:36.282Z,3690
2018-05-12T10:20:37.166Z,3588
2018-05-12T10:21:37.908Z,3639
2018-05-12T10:22:38.653Z,3650
2018-05-12T10:23:39.385Z,3706
2018-05-12T10:24:40.123Z,3611
2018-05-12T10:25:41.392Z,3414
2018-05-12T10:26:42.124Z,3380
2018-05-12T10:27:42.896Z,3481
2018-05-12T10:28:44.522Z,3510
2018-05-12T10:29:45.312Z,3470
2018-05-12T10:30:46.309Z,3560
2018-05-12T10:31:47.031Z,2356
2018-05-12T10:32:47.758Z,3532
2018-05-12T10:33:48.600Z,3763
2018-05-12T10:34:49.335Z,3808
2018-05-12T10:35:50.079Z,3830
2018-05-12T10:36:50.845Z,3729
2018-05-12T10:37:51.582Z,3138
2018-05-12T10:38:52.654Z,3577
2018-05-12T10:39:53.299Z,3701
2018-05-12T10:40:54.031Z,3706
2018-05-12T10:41:54.813Z,3735
2018-05-12T10:42:55.936Z,3780
2018-05-12T10:43:57.039Z,3841
2018-05-12T10:44:58.019Z,3858
2018-05-12T10:45:58.754Z,3875
2018-05-12T10:46:59.498Z,3825
2018-05-12T10:48:00.229Z,3521
2018-05-12T10:49:00.964Z,1170
2018-05-12T10:50:01.704Z,1265
2018-05-12T10:51:02.535Z,2536
2018-05-12T10:52:03.275Z,3521
2018-05-12T10:53:04.009Z,3701
2018-05-12T10:54:04.757Z,1777
2018-05-12T10:55:05.486Z,1732
2018-05-12T10:56:06.370Z,2486
2018-05-12T10:57:07.363Z,3459
2018-05-12T10:58:08.102Z,2323
2018-05-12T10:59:09.093Z,2227
2018-05-12T11:00:09.827Z,1344
2018-05-12T11:01:10.563Z,3228
2018-05-12T11:02:11.294Z,1580
2018-05-12T11:03:12.082Z,3403
2018-05-12T11:04:12.818Z,3363
2018-05-12T11:05:13.881Z,3290
2018-05-12T11:06:14.610Z,3228
2018-05-12T11:07:15.405Z,3245
2018-05-12T11:08:16.738Z,3048
2018-05-12T11:09:17.747Z,1501
2018-05-12T11:10:18.488Z,3453
2018-05-12T11:11:19.232Z,3645
2018-05-12T11:12:20.016Z,3611
2018-05-12T11:13:21.000Z,3240
2018-05-12T11:14:21.737Z,1845
2018-05-12T11:15:22.488Z,3555
2018-05-12T11:16:23.227Z,3650
2018-05-12T11:17:24.133Z,3538
2018-05-12T11:18:25.122Z,1350
2018-05-12T11:19:25.862Z,1158
2018-05-12T11:20:26.598Z,1299
2018-05-12T11:21:27.332Z,3240
2018-05-12T11:22:28.072Z,1665
2018-05-12T11:23:28.808Z,1119
2018-05-12T11:24:29.550Z,1046
2018-05-12T11:25:30.550Z,1080
2018-05-12T11:26:31.497Z,2503
2018-05-12T11:27:32.271Z,1074
2018-05-12T11:28:33.013Z,1327
2018-05-12T11:29:33.750Z,3290
2018-05-12T11:30:34.493Z,3476
2018-05-12T11:31:35.227Z,1974
2018-05-12T11:32:35.971Z,3487
2018-05-12T11:33:36.710Z,2008
2018-05-12T11:34:37.457Z,1513
2018-05-12T11:35:38.192Z,1665
2018-05-12T11:36:38.928Z,3346
2018-05-12T11:37:39.757Z,1878
2018-05-12T11:38:42.464Z,3650
2018-05-12T11:39:43.062Z,3538
2018-05-12T11:40:43.801Z,3420
2018-05-12T11:41:44.533Z,3031
2018-05-12T11:42:45.268Z,1316
2018-05-12T11:43:46.363Z,1085
2018-05-12T11:44:47.156Z,973
2018-05-12T11:45:47.827Z,990
2018-05-12T11:46:48.619Z,1068
2018-05-12T11:47:49.347Z,1445
2018-05-12T11:48:50.087Z,1445
2018-05-12T11:49:50.822Z,3555
2018-05-12T11:50:51.548Z,1794
2018-05-12T11:51:52.355Z,3273
2018-05-12T11:52:53.096Z,2272
2018-05-12T11:53:53.824Z,1546
2018-05-12T11:54:54.565Z,1563
2018-05-12T11:55:55.305Z,3150
2018-05-12T11:56:56.051Z,2756
2018-05-12T11:57:56.785Z,3341
2018-05-12T11:58:58.174Z,3335
2018-05-12T11:59:59.112Z,3414
2018-05-12T12:00:59.874Z,3448
2018-05-12T12:02:00.664Z,3425
2018-05-12T12:03:01.651Z,3386
2018-05-12T12:04:02.377Z,3341
2018-05-12T12:05:03.836Z,3256
2018-05-12T12:06:05.024Z,3200
2018-05-12T12:07:06.440Z,2570
2018-05-12T12:08:07.243Z,3065
2018-05-12T12:09:08.000Z,3268
2018-05-12T12:10:08.728Z,3296
2018-05-12T12:11:09.492Z,3172
2018-05-12T12:12:10.282Z,3166
2018-05-12T12:13:11.476Z,2908
2018-05-12T12:14:12.306Z,1850
2018-05-12T12:15:13.683Z,1350
2018-05-12T12:16:14.435Z,1451
2018-05-12T12:17:15.272Z,1282
2018-05-12T12:18:16.669Z,1614
2018-05-12T12:19:17.789Z,1963
2018-05-12T12:20:18.537Z,2041
2018-05-12T12:21:19.283Z,1721
2018-05-12T12:22:20.398Z,2745
2018-05-12T12:23:21.409Z,3178
2018-05-12T12:24:22.553Z,2480
2018-05-12T12:25:23.302Z,1496
2018-05-12T12:26:24.053Z,1080
2018-05-12T12:27:24.776Z,928
2018-05-12T12:28:25.520Z,883
2018-05-12T12:29:26.271Z,922
2018-05-12T12:30:27.011Z,1018
2018-05-12T12:31:27.744Z,945
2018-05-12T12:32:28.598Z,939
2018-05-12T12:33:29.779Z,1001
2018-05-12T12:34:30.558Z,1040
2018-05-12T12:35:31.285Z,1153
2018-05-12T12:36:32.028Z,2013
2018-05-12T12:37:33.031Z,2818
2018-05-12T12:38:33.762Z,928
2018-05-12T12:39:34.489Z,815
2018-05-12T12:40:35.470Z,742
2018-05-12T12:41:36.443Z,742
2018-05-12T12:42:37.177Z,804
2018-05-12T12:43:37.904Z,826
2018-05-12T12:44:38.645Z,905
2018-05-12T12:45:39.432Z,978
2018-05-12T12:46:40.441Z,1051
2018-05-12T12:47:41.461Z,1085
2018-05-12T12:48:42.457Z,1085
2018-05-12T12:49:43.510Z,1085
2018-05-12T12:50:44.811Z,2379
2018-05-12T12:51:45.600Z,2261
2018-05-12T12:52:46.334Z,1074
2018-05-12T12:53:47.068Z,956
2018-05-12T12:54:47.815Z,933
2018-05-12T12:55:48.899Z,1119
2018-05-12T12:56:50.178Z,2716
2018-05-12T12:57:52.303Z,2885
2018-05-12T12:58:53.025Z,2902
2018-05-12T12:59:53.801Z,2818
2018-05-12T13:00:54.963Z,2851
2018-05-12T13:01:56.120Z,2874
2018-05-12T13:02:57.679Z,2840
2018-05-12T13:03:58.542Z,2790
2018-05-12T13:04:59.500Z,2863
2018-05-12T13:06:00.281Z,2868
2018-05-12T13:07:01.562Z,2981
2018-05-12T13:08:02.431Z,2913
2018-05-12T13:09:03.262Z,2801
2018-05-12T13:10:03.995Z,2773
2018-05-12T13:11:04.725Z,2846
2018-05-12T13:12:05.462Z,2930
2018-05-12T13:13:06.346Z,2958
2018-05-12T13:14:07.083Z,2925
2018-05-12T13:15:07.815Z,2790
2018-05-12T13:16:08.554Z,2818
2018-05-12T13:17:09.531Z,2851
2018-05-12T13:18:10.267Z,2958
2018-05-12T13:19:10.998Z,2885
2018-05-12T13:20:11.731Z,2868
2018-05-12T13:21:12.470Z,2835
2018-05-12T13:22:13.784Z,2677
2018-05-12T13:23:14.428Z,2671
2018-05-12T13:24:15.236Z,2503
2018-05-12T13:25:15.974Z,2638
2018-05-12T13:26:16.714Z,2480
2018-05-12T13:27:17.705Z,2576
2018-05-12T13:28:18.432Z,2677
2018-05-12T13:29:19.595Z,2795
2018-05-12T13:30:20.320Z,2829
2018-05-12T13:31:21.305Z,2818
2018-05-12T13:32:22.340Z,2626
2018-05-12T13:33:23.039Z,1108
2018-05-12T13:34:23.770Z,995
2018-05-12T13:35:24.500Z,1316
2018-05-12T13:36:25.353Z,916
2018-05-12T13:37:26.083Z,939
2018-05-12T13:38:26.812Z,1755
2018-05-12T13:39:27.799Z,2334
2018-05-12T13:40:28.597Z,1996
2018-05-12T13:41:29.276Z,961
2018-05-12T13:42:29.998Z,798
2018-05-12T13:43:30.996Z,742
2018-05-12T13:44:31.994Z,708
2018-05-12T13:45:33.882Z,703
2018-05-12T13:46:35.007Z,720
2018-05-12T13:47:35.745Z,781
2018-05-12T13:48:36.809Z,883
2018-05-12T13:49:37.882Z,815
2018-05-12T13:50:38.728Z,804
2018-05-12T13:51:39.454Z,855
2018-05-12T13:52:40.461Z,928
2018-05-12T13:53:41.205Z,1316
2018-05-12T13:54:41.931Z,1996
2018-05-12T13:55:42.864Z,1991
2018-05-12T13:56:43.677Z,1541
2018-05-12T13:57:44.319Z,1248
2018-05-12T13:58:45.057Z,2368
2018-05-12T13:59:45.798Z,2368
2018-05-12T14:00:46.706Z,2278
2018-05-12T14:01:47.433Z,2261